Terminal Aerodrome Forecast
Issued by NWS Corpus Christi, TX

Home | Current Version | Previous Version | Text Only | Print | Product List | Glossary On
Versions: 1 2 3 4 5 6 7 8 9 10 11 12 13
000
FTUS44 KCRP 270523
TAFCRP
TAF
KCRP 270523Z 2706/2806 16008KT P6SM BKN025
     FM271200 17005KT P6SM VCSH SCT025
     FM271800 14015G22KT P6SM VCSH BKN035
     FM280100 14010KT P6SM BKN035=

USA.gov is the U.S. government's official web portal to all federal, state and local government web resources and services.